Погода Бейрутна неделю

Бейрут, Ливан

19 - 25 июля
  • 19июля
    Сегодня
    +28°
    +32°
    Ясно и безоблачно
    ВремяПогодаТемператураВлажностьДавлениеВетер, м/сВероятность осадков
    00:00Ясно и безоблачно+29°C69 %749 мм2.3 м/с1 %
    03:00Ясно и безоблачно+28°C67 %749 мм2.5 м/с1 %
    06:00Ясно и безоблачно+28°C64 %748 мм2.0 м/с1 %
    09:00Ясно и безоблачно+30°C65 %748 мм5.5 м/с1 %
    12:00Ясно и безоблачно+31°C67 %748 мм5.9 м/с1 %
    15:00Ясно и безоблачно+32°C66 %748 мм5.7 м/с1 %
    18:00Ясно и безоблачно+31°C67 %747 мм4.6 м/с1 %
    21:00Ясно и безоблачно+30°C75 %747 мм3.8 м/с1 %
  • 20июля
    Суббота
    +27°
    +32°
    Ясно и безоблачно
    ВремяПогодаТемператураВлажностьДавлениеВетер, м/сВероятность осадков
    00:00Ясно и безоблачно+29°C73 %747 мм3.2 м/с1 %
    03:00Ясно и безоблачно+29°C70 %746 мм3.3 м/с1 %
    06:00Ясно и безоблачно+28°C71 %746 мм2.6 м/с1 %
    09:00Ясно и безоблачно+30°C69 %747 мм6.0 м/с1 %
    12:00Ясно и безоблачно+31°C70 %748 мм6.3 м/с1 %
    15:00Ясно и безоблачно+32°C69 %748 мм6.1 м/с1 %
    18:00Ясно и безоблачно+31°C69 %747 мм4.7 м/с1 %
    21:00Ясно и безоблачно+30°C76 %748 мм3.7 м/с1 %
  • 21июля
    Воскресенье
    +27°
    +32°
    Ясно и безоблачно
    ВремяПогодаТемператураВлажностьДавлениеВетер, м/сВероятность осадков
    00:00Ясно и безоблачно+29°C79 %748 мм2.8 м/с1 %
    03:00Ясно и безоблачно+28°C67 %747 мм2.7 м/с1 %
    06:00Ясно и безоблачно+28°C58 %748 мм2.0 м/с1 %
    09:00Ясно и безоблачно+30°C66 %749 мм5.3 м/с1 %
    12:00Ясно и безоблачно+31°C71 %749 мм6.0 м/с1 %
    15:00Ясно и безоблачно+32°C68 %749 мм5.7 м/с1 %
    18:00Ясно и безоблачно+31°C73 %749 мм4.5 м/с1 %
    21:00Ясно и безоблачно+30°C80 %749 мм3.4 м/с1 %
  • 22июля
    Понедельник
    +27°
    +32°
    Ясно и безоблачно
    ВремяПогодаТемператураВлажностьДавлениеВетер, м/сВероятность осадков
    00:00Ясно и безоблачно+29°C75 %749 мм2.6 м/с1 %
    03:00Ясно и безоблачно+28°C68 %748 мм2.8 м/с1 %
    06:00Ясно и безоблачно+28°C61 %749 мм2.4 м/с1 %
    09:00Ясно и безоблачно+30°C65 %749 мм5.8 м/с1 %
    12:00Ясно и безоблачно+31°C69 %750 мм6.1 м/с1 %
    15:00Ясно и безоблачно+32°C66 %750 мм5.8 м/с1 %
    18:00Ясно и безоблачно+31°C71 %749 мм4.8 м/с1 %
    21:00Ясно и безоблачно+30°C79 %749 мм3.6 м/с1 %
  • 23июля
    Вторник
    +27°
    +32°
    Ясно и безоблачно
    ВремяПогодаТемператураВлажностьДавлениеВетер, м/сВероятность осадков
    00:00Ясно и безоблачно+29°C75 %749 мм2.9 м/с1 %
    03:00Ясно и безоблачно+29°C68 %749 мм3.1 м/с1 %
    06:00Ясно и безоблачно+28°C60 %749 мм2.5 м/с1 %
    09:00Ясно и безоблачно+31°C65 %749 мм5.6 м/с1 %
    12:00Ясно и безоблачно+31°C70 %750 мм6.0 м/с1 %
    15:00Ясно и безоблачно+32°C68 %750 мм5.8 м/с1 %
    18:00Ясно и безоблачно+31°C68 %749 мм4.3 м/с1 %
    21:00Ясно и безоблачно+29°C73 %749 мм3.6 м/с1 %
Мы используем cookies
Соглашаюсь